createdAt,value
2022-08-17T00:00:03.749Z,23.23
2022-08-17T00:02:31.331Z,22.98
2022-08-17T00:05:04.055Z,23.04
2022-08-17T00:07:31.028Z,23.08
2022-08-17T00:09:58.116Z,23.14
2022-08-17T00:12:42.721Z,23.06
2022-08-17T00:15:13.606Z,23.25
2022-08-17T00:17:42.510Z,23.12
2022-08-17T00:20:12.070Z,22.83
2022-08-17T00:22:39.119Z,22.79
2022-08-17T00:25:13.075Z,22.86
2022-08-17T00:27:40.480Z,22.70
2022-08-17T00:30:11.506Z,22.68
2022-08-17T00:33:22.932Z,22.73
2022-08-17T00:35:35.132Z,22.47
2022-08-17T00:38:04.199Z,22.42
2022-08-17T00:40:44.507Z,22.36
2022-08-17T00:43:31.300Z,22.39
2022-08-17T00:46:01.654Z,22.45
2022-08-17T00:48:31.366Z,22.44
2022-08-17T00:51:18.138Z,22.34
2022-08-17T00:53:53.629Z,22.55
2022-08-17T00:56:33.321Z,22.49
2022-08-17T00:59:02.746Z,22.42
2022-08-17T01:01:30.306Z,22.35
2022-08-17T01:04:00.012Z,22.40
2022-08-17T01:06:28.339Z,22.59
2022-08-17T01:08:58.097Z,22.51
2022-08-17T01:11:26.545Z,22.36
2022-08-17T01:13:53.828Z,22.37
2022-08-17T01:16:29.174Z,22.45
2022-08-17T01:19:05.173Z,22.47
2022-08-17T01:21:58.453Z,22.36
2022-08-17T01:24:27.915Z,22.43
2022-08-17T01:26:57.715Z,22.58
2022-08-17T01:29:25.805Z,22.38
2022-08-17T01:31:57.192Z,22.33
2022-08-17T01:34:28.237Z,22.25
2022-08-17T01:37:09.545Z,22.11
2022-08-17T01:39:45.594Z,21.92
2022-08-17T01:42:53.831Z,21.81
2022-08-17T01:45:26.664Z,21.81
2022-08-17T01:47:54.492Z,21.86
2022-08-17T01:50:29.333Z,21.88
2022-08-17T01:53:15.528Z,21.77
2022-08-17T01:55:51.736Z,21.93
2022-08-17T01:58:20.259Z,21.99
2022-08-17T02:01:00.650Z,21.92
2022-08-17T02:03:30.419Z,21.87
2022-08-17T02:05:57.973Z,21.83
2022-08-17T02:08:38.873Z,21.84
2022-08-17T02:11:17.864Z,21.81
2022-08-17T02:13:57.971Z,21.62
2022-08-17T02:16:37.441Z,21.63
2022-08-17T02:19:12.712Z,21.49
2022-08-17T02:21:42.024Z,21.49
2022-08-17T02:24:15.686Z,21.47
2022-08-17T02:26:42.788Z,21.40
2022-08-17T02:29:09.844Z,21.46
2022-08-17T02:31:37.878Z,21.52
2022-08-17T02:34:05.468Z,21.37
2022-08-17T02:36:34.268Z,21.47
2022-08-17T02:39:05.275Z,21.45
2022-08-17T02:41:33.024Z,21.30
2022-08-17T02:44:00.611Z,21.23
2022-08-17T02:46:28.371Z,21.31
2022-08-17T02:48:55.771Z,21.13
2022-08-17T02:51:23.260Z,21.25
2022-08-17T02:53:50.297Z,21.16
2022-08-17T02:56:17.458Z,21.20
2022-08-17T02:58:44.429Z,21.31
2022-08-17T03:01:12.792Z,21.41
2022-08-17T03:03:40.989Z,21.39
2022-08-17T03:06:08.795Z,21.35
2022-08-17T03:08:37.451Z,21.41
2022-08-17T03:11:04.511Z,21.42
2022-08-17T03:13:31.507Z,21.34
2022-08-17T03:15:58.910Z,21.31
2022-08-17T03:18:27.970Z,21.36
2022-08-17T03:20:59.195Z,21.23
2022-08-17T03:23:27.600Z,21.43
2022-08-17T03:25:57.282Z,21.13
2022-08-17T03:28:25.163Z,21.02
2022-08-17T03:30:52.855Z,21.19
2022-08-17T03:33:20.015Z,21.27
2022-08-17T03:35:47.553Z,21.09
2022-08-17T03:38:17.377Z,21.19
2022-08-17T03:40:56.941Z,21.19
2022-08-17T03:43:32.594Z,21.23
2022-08-17T03:46:27.704Z,21.14
2022-08-17T03:49:15.462Z,21.25
2022-08-17T03:52:01.347Z,21.46
2022-08-17T03:54:46.918Z,21.27
2022-08-17T03:57:13.920Z,21.32
2022-08-17T03:59:41.051Z,21.49
2022-08-17T04:02:13.060Z,22.12
2022-08-17T04:04:40.284Z,22.26
2022-08-17T04:07:07.676Z,22.67
2022-08-17T04:09:35.019Z,22.98
2022-08-17T04:12:04.885Z,23.37
2022-08-17T04:14:45.993Z,23.80
2022-08-17T04:17:21.261Z,24.20
2022-08-17T04:19:48.293Z,24.61
2022-08-17T04:22:31.378Z,25.24
2022-08-17T04:25:08.046Z,25.74
2022-08-17T04:27:35.209Z,26.40
2022-08-17T04:30:03.183Z,27.02
2022-08-17T04:33:00.767Z,27.74
2022-08-17T04:35:21.693Z,28.46
2022-08-17T04:37:48.964Z,28.94
2022-08-17T04:40:35.449Z,29.05
2022-08-17T04:43:12.315Z,29.42
2022-08-17T04:45:55.281Z,29.93
2022-08-17T04:48:27.905Z,31.03
2022-08-17T04:51:10.163Z,31.07
2022-08-17T04:53:40.030Z,31.83
2022-08-17T04:56:08.099Z,32.37
2022-08-17T04:58:50.146Z,32.53
2022-08-17T05:01:23.857Z,32.98
2022-08-17T05:03:56.337Z,33.80
2022-08-17T05:06:24.173Z,34.94
2022-08-17T05:08:51.214Z,34.86
2022-08-17T05:11:18.481Z,34.77
2022-08-17T05:13:45.459Z,35.73
2022-08-17T05:16:12.591Z,35.98
2022-08-17T05:18:39.594Z,36.08
2022-08-17T05:21:07.075Z,35.98
2022-08-17T05:23:43.070Z,35.05
2022-08-17T05:26:25.760Z,34.48
2022-08-17T05:28:57.301Z,35.79
2022-08-17T05:31:29.558Z,36.58
2022-08-17T05:33:56.808Z,37.81
2022-08-17T05:36:41.742Z,37.88
2022-08-17T05:39:16.834Z,37.89
2022-08-17T05:41:47.919Z,38.04
2022-08-17T05:44:16.117Z,39.20
2022-08-17T05:46:52.006Z,39.35
2022-08-17T05:49:27.719Z,39.66
2022-08-17T05:52:26.992Z,39.99
2022-08-17T05:55:10.633Z,39.93
2022-08-17T05:58:18.714Z,35.10
2022-08-17T06:01:09.520Z,33.78
2022-08-17T06:04:10.367Z,33.47
2022-08-17T06:06:42.457Z,33.35
2022-08-17T06:09:35.087Z,34.35
2022-08-17T06:12:28.030Z,33.43
2022-08-17T06:15:16.117Z,32.82
2022-08-17T06:17:43.784Z,32.05
2022-08-17T06:20:15.982Z,31.64
2022-08-17T06:22:58.815Z,30.90
2022-08-17T06:25:49.803Z,30.59
2022-08-17T06:28:29.977Z,30.11
2022-08-17T06:31:06.717Z,30.61
2022-08-17T06:33:39.446Z,32.14
2022-08-17T06:36:16.138Z,31.64
2022-08-17T06:39:26.788Z,31.33
2022-08-17T06:42:03.361Z,31.38
2022-08-17T06:45:06.497Z,32.46
2022-08-17T06:47:47.512Z,31.76
2022-08-17T06:50:35.976Z,31.83
2022-08-17T06:53:19.755Z,33.78
2022-08-17T06:56:13.609Z,35.55
2022-08-17T06:58:43.717Z,37.00
2022-08-17T07:01:20.900Z,37.02
2022-08-17T07:03:55.704Z,37.39
2022-08-17T07:06:32.922Z,37.16
2022-08-17T07:09:35.543Z,39.49
2022-08-17T07:12:39.549Z,41.03
2022-08-17T07:15:20.589Z,41.26
2022-08-17T07:17:48.492Z,41.28
2022-08-17T07:20:21.223Z,41.68
2022-08-17T07:23:12.988Z,42.04
2022-08-17T07:25:40.176Z,39.71
2022-08-17T07:28:07.899Z,40.79
2022-08-17T07:30:49.235Z,41.02
2022-08-17T07:33:26.140Z,40.61
2022-08-17T07:35:53.647Z,38.98
2022-08-17T07:38:33.142Z,39.23
2022-08-17T07:41:07.285Z,40.57
2022-08-17T07:43:40.116Z,41.51
2022-08-17T07:46:53.219Z,39.09
2022-08-17T07:49:38.360Z,36.51
2022-08-17T07:52:47.446Z,35.48
2022-08-17T07:54:58.677Z,36.13
2022-08-17T07:57:36.163Z,36.93
2022-08-17T08:00:12.707Z,35.72
2022-08-17T08:02:57.807Z,36.39
2022-08-17T08:05:49.744Z,35.55
2022-08-17T08:08:33.724Z,36.84
2022-08-17T08:11:08.956Z,38.26
2022-08-17T08:13:43.879Z,38.69
2022-08-17T08:16:16.729Z,38.20
2022-08-17T08:18:55.529Z,37.84
2022-08-17T08:22:26.368Z,37.03
2022-08-17T08:25:25.467Z,37.40
2022-08-17T08:28:07.436Z,38.43
2022-08-17T08:30:46.696Z,37.70
2022-08-17T08:33:32.029Z,38.21
2022-08-17T08:37:02.149Z,37.01
2022-08-17T08:39:39.896Z,36.22
2022-08-17T08:42:27.508Z,36.04
2022-08-17T08:45:24.791Z,35.12
2022-08-17T08:48:07.026Z,35.01
2022-08-17T08:51:00.837Z,34.90
2022-08-17T08:54:11.954Z,35.09
2022-08-17T08:57:21.578Z,35.86
2022-08-17T09:00:16.227Z,35.60
2022-08-17T09:03:07.352Z,35.34
2022-08-17T09:06:39.590Z,35.55
2022-08-17T09:09:32.942Z,35.81
2022-08-17T09:12:21.720Z,36.17
2022-08-17T09:15:01.249Z,35.97
2022-08-17T09:18:14.611Z,36.87
2022-08-17T09:20:54.042Z,35.54
2022-08-17T09:23:59.474Z,35.58
2022-08-17T09:26:54.453Z,35.62
2022-08-17T09:29:26.410Z,36.11
2022-08-17T09:32:03.612Z,36.12
2022-08-17T09:34:52.643Z,34.44
2022-08-17T09:37:58.361Z,34.15
2022-08-17T09:40:49.766Z,33.91
2022-08-17T09:43:55.321Z,34.16
2022-08-17T09:46:31.098Z,33.85
2022-08-17T09:49:10.663Z,34.63
2022-08-17T09:51:58.072Z,35.25
2022-08-17T09:54:41.117Z,35.23
2022-08-17T09:57:32.316Z,35.17
2022-08-17T10:00:13.422Z,35.30
2022-08-17T10:02:55.216Z,35.25
2022-08-17T10:05:51.279Z,35.75
2022-08-17T10:08:23.489Z,36.24
2022-08-17T10:11:08.220Z,35.39
2022-08-17T10:14:02.242Z,35.62
2022-08-17T10:17:04.183Z,35.88
2022-08-17T10:19:53.287Z,36.31
2022-08-17T10:22:55.139Z,36.47
2022-08-17T10:25:54.741Z,36.07
2022-08-17T10:28:31.506Z,36.16
2022-08-17T10:31:33.125Z,35.16
2022-08-17T10:34:53.470Z,35.47
2022-08-17T10:37:28.277Z,35.34
2022-08-17T10:40:19.829Z,34.61
2022-08-17T10:43:17.240Z,34.87
2022-08-17T10:46:39.553Z,34.16
2022-08-17T10:49:18.587Z,33.77
2022-08-17T10:51:54.359Z,34.75
2022-08-17T10:54:24.328Z,35.32
2022-08-17T10:56:56.759Z,34.64
2022-08-17T10:59:35.981Z,34.59
2022-08-17T11:02:18.991Z,34.65
2022-08-17T11:05:03.247Z,33.76
2022-08-17T11:08:17.928Z,33.13
2022-08-17T11:11:20.227Z,33.58
2022-08-17T11:14:13.865Z,33.34
2022-08-17T11:17:31.770Z,33.07
2022-08-17T11:20:35.813Z,33.20
2022-08-17T11:23:31.726Z,33.38
2022-08-17T11:26:04.193Z,33.51
2022-08-17T11:28:50.365Z,33.76
2022-08-17T11:31:39.970Z,33.86
2022-08-17T11:34:19.771Z,33.26
2022-08-17T11:37:36.269Z,33.15
2022-08-17T11:40:46.449Z,33.01
2022-08-17T11:43:56.020Z,32.50
2022-08-17T11:47:18.119Z,33.00
2022-08-17T11:50:38.659Z,32.84
2022-08-17T11:53:06.577Z,33.27
2022-08-17T11:55:37.538Z,33.06
2022-08-17T11:58:29.324Z,33.12
2022-08-17T12:01:02.120Z,33.52
2022-08-17T12:03:32.031Z,33.31
2022-08-17T12:06:19.889Z,33.44
2022-08-17T12:09:01.477Z,33.58
2022-08-17T12:11:55.125Z,33.69
2022-08-17T12:15:05.937Z,33.57
2022-08-17T12:17:41.206Z,33.63
2022-08-17T12:20:40.288Z,32.63
2022-08-17T12:23:32.932Z,32.72
2022-08-17T12:26:11.839Z,32.45
2022-08-17T12:28:44.254Z,32.28
2022-08-17T12:31:27.211Z,32.55
2022-08-17T12:33:54.679Z,32.90
2022-08-17T12:36:28.470Z,33.29
2022-08-17T12:39:12.797Z,33.53
2022-08-17T12:41:44.933Z,33.06
2022-08-17T12:44:12.325Z,32.76
2022-08-17T12:47:22.772Z,32.10
2022-08-17T12:49:54.010Z,32.09
2022-08-17T12:52:29.407Z,31.74
2022-08-17T12:55:06.989Z,31.93
2022-08-17T12:57:46.946Z,31.88
2022-08-17T13:00:35.219Z,31.65
2022-08-17T13:03:13.351Z,31.80
2022-08-17T13:05:54.278Z,31.53
2022-08-17T13:08:36.725Z,31.55
2022-08-17T13:11:18.510Z,31.60
2022-08-17T13:13:56.089Z,31.46
2022-08-17T13:16:28.320Z,31.69
2022-08-17T13:19:39.857Z,32.00
2022-08-17T13:22:12.783Z,32.33
2022-08-17T13:24:58.261Z,32.27
2022-08-17T13:27:29.169Z,31.99
2022-08-17T13:30:00.985Z,31.74
2022-08-17T13:32:31.102Z,31.73
2022-08-17T13:35:15.510Z,32.03
2022-08-17T13:38:08.639Z,32.10
2022-08-17T13:40:53.473Z,31.76
2022-08-17T13:43:50.558Z,31.49
2022-08-17T13:46:26.632Z,32.08
2022-08-17T13:49:09.807Z,31.97
2022-08-17T13:51:44.903Z,31.78
2022-08-17T13:54:51.165Z,31.96
2022-08-17T13:57:25.191Z,32.08
2022-08-17T14:00:17.931Z,32.07
2022-08-17T14:02:44.909Z,31.95
2022-08-17T14:05:11.893Z,32.31
2022-08-17T14:07:40.832Z,32.34
2022-08-17T14:10:17.887Z,31.96
2022-08-17T14:12:45.808Z,31.92
2022-08-17T14:15:16.939Z,32.20
2022-08-17T14:17:44.404Z,32.11
2022-08-17T14:20:13.191Z,31.93
2022-08-17T14:22:46.403Z,31.86
2022-08-17T14:25:22.988Z,32.02
2022-08-17T14:27:52.977Z,31.79
2022-08-17T14:30:25.699Z,31.36
2022-08-17T14:32:54.826Z,31.01
2022-08-17T14:35:23.918Z,31.01
2022-08-17T14:37:52.735Z,31.01
2022-08-17T14:40:22.657Z,31.09
2022-08-17T14:42:50.038Z,31.52
2022-08-17T14:45:31.926Z,31.37
2022-08-17T14:48:04.116Z,31.53
2022-08-17T14:50:31.839Z,31.38
2022-08-17T14:52:59.176Z,31.23
2022-08-17T14:55:28.409Z,31.16
2022-08-17T14:57:55.366Z,31.16
2022-08-17T15:00:22.610Z,31.51
2022-08-17T15:02:58.118Z,31.37
2022-08-17T15:05:33.641Z,30.99
2022-08-17T15:08:02.588Z,30.73
2022-08-17T15:10:30.703Z,30.60
2022-08-17T15:12:58.484Z,30.73
2022-08-17T15:15:26.313Z,30.68
2022-08-17T15:17:53.388Z,30.37
2022-08-17T15:20:27.956Z,30.64
2022-08-17T15:22:56.113Z,30.43
2022-08-17T15:25:25.906Z,30.41
2022-08-17T15:27:53.775Z,30.39
2022-08-17T15:30:21.474Z,29.88
2022-08-17T15:32:54.470Z,30.12
2022-08-17T15:35:27.514Z,30.28
2022-08-17T15:38:11.579Z,29.79
2022-08-17T15:40:44.310Z,29.97
2022-08-17T15:43:27.291Z,30.02
2022-08-17T15:46:05.698Z,30.05
2022-08-17T15:48:42.105Z,29.91
2022-08-17T15:51:18.132Z,29.83
2022-08-17T15:53:52.262Z,29.81
2022-08-17T15:56:19.938Z,29.79
2022-08-17T15:58:49.140Z,29.69
2022-08-17T16:03:14.371Z,29.97
2022-08-17T16:04:27.244Z,30.03
2022-08-17T16:10:55.501Z,29.90
2022-08-17T16:13:24.108Z,29.72
2022-08-17T16:15:57.305Z,29.77
2022-08-17T16:18:31.037Z,29.30
2022-08-17T16:21:24.244Z,29.19
2022-08-17T16:24:04.603Z,28.91
2022-08-17T16:26:33.612Z,29.10
2022-08-17T16:29:04.372Z,29.14
2022-08-17T16:31:32.313Z,29.15
2022-08-17T16:34:17.876Z,29.23
2022-08-17T16:36:55.044Z,29.07
2022-08-17T16:39:26.488Z,28.86
2022-08-17T16:41:53.615Z,28.72
2022-08-17T16:44:21.793Z,28.69
2022-08-17T16:46:50.440Z,28.71
2022-08-17T16:49:25.711Z,28.71
2022-08-17T16:52:06.244Z,28.56
2022-08-17T16:54:35.492Z,28.51
2022-08-17T16:57:05.247Z,28.55
2022-08-17T16:59:42.162Z,28.45
2022-08-17T17:02:14.048Z,28.27
2022-08-17T17:05:00.064Z,28.21
2022-08-17T17:08:12.838Z,28.17
2022-08-17T17:10:52.720Z,28.22
2022-08-17T17:13:50.848Z,27.77
2022-08-17T17:17:01.073Z,28.01
2022-08-17T17:19:35.827Z,27.71
2022-08-17T17:22:18.860Z,27.65
2022-08-17T17:25:07.563Z,27.57
2022-08-17T17:27:53.180Z,27.71
2022-08-17T17:30:48.392Z,27.58
2022-08-17T17:34:03.857Z,27.78
2022-08-17T17:36:40.864Z,27.46
2022-08-17T17:39:17.686Z,27.26
2022-08-17T17:41:58.903Z,27.17
2022-08-17T17:44:33.202Z,27.14
2022-08-17T17:47:03.897Z,27.13
2022-08-17T17:49:38.854Z,27.09
2022-08-17T17:53:08.928Z,27.08
2022-08-17T17:55:51.805Z,27.25
2022-08-17T17:58:42.637Z,27.15
2022-08-17T18:01:28.448Z,27.24
2022-08-17T18:04:32.657Z,27.15
2022-08-17T18:07:33.988Z,26.94
2022-08-17T18:10:30.104Z,26.71
2022-08-17T18:13:53.399Z,26.60
2022-08-17T18:16:20.674Z,26.62
2022-08-17T18:18:50.080Z,26.60
2022-08-17T18:21:29.247Z,26.47
2022-08-17T18:24:02.881Z,26.33
2022-08-17T18:26:52.667Z,26.46
2022-08-17T18:29:28.030Z,26.35
2022-08-17T18:32:15.328Z,26.46
2022-08-17T18:34:47.725Z,26.31
2022-08-17T18:37:40.872Z,26.32
2022-08-17T18:40:17.017Z,26.29
2022-08-17T18:43:10.370Z,26.20
2022-08-17T18:45:50.198Z,26.20
2022-08-17T18:48:41.966Z,26.11
2022-08-17T18:51:42.892Z,26.15
2022-08-17T18:54:19.364Z,26.17
2022-08-17T18:56:59.178Z,26.12
2022-08-17T18:59:41.352Z,26.08
2022-08-17T19:02:20.713Z,26.22
2022-08-17T19:05:10.606Z,26.21
2022-08-17T19:07:47.444Z,26.17
2022-08-17T19:10:28.809Z,26.04
2022-08-17T19:13:23.953Z,26.00
2022-08-17T19:16:20.271Z,26.25
2022-08-17T19:19:49.378Z,25.98
2022-08-17T19:22:30.931Z,25.86
2022-08-17T19:25:16.046Z,25.86
2022-08-17T19:27:57.293Z,26.05
2022-08-17T19:30:25.187Z,26.05
2022-08-17T19:32:53.112Z,26.17
2022-08-17T19:35:22.910Z,26.11
2022-08-17T19:38:15.752Z,26.05
2022-08-17T19:41:34.093Z,25.89
2022-08-17T19:44:19.067Z,25.80
2022-08-17T19:47:19.580Z,25.56
2022-08-17T19:50:11.373Z,25.41
2022-08-17T19:52:52.800Z,25.52
2022-08-17T19:55:43.563Z,25.45
2022-08-17T19:58:40.060Z,25.38
2022-08-17T20:01:13.908Z,25.62
2022-08-17T20:04:31.830Z,25.70
2022-08-17T20:07:26.222Z,25.52
2022-08-17T20:10:12.004Z,25.43
2022-08-17T20:12:42.656Z,25.50
2022-08-17T20:15:17.853Z,25.43
2022-08-17T20:17:47.635Z,25.48
2022-08-17T20:20:57.714Z,25.51
2022-08-17T20:24:04.619Z,25.45
2022-08-17T20:27:17.995Z,25.60
2022-08-17T20:30:29.697Z,25.61
2022-08-17T20:32:58.984Z,25.78
2022-08-17T20:35:38.924Z,25.62
2022-08-17T20:38:41.913Z,25.58
2022-08-17T20:41:22.443Z,25.78
2022-08-17T20:43:59.022Z,25.80
2022-08-17T20:46:38.286Z,25.46
2022-08-17T20:49:14.598Z,25.47
2022-08-17T20:52:01.429Z,25.56
2022-08-17T20:54:53.830Z,25.39
2022-08-17T20:57:32.820Z,25.32
2022-08-17T21:00:17.125Z,25.39
2022-08-17T21:02:50.610Z,25.33
2022-08-17T21:06:00.438Z,25.74
2022-08-17T21:08:35.892Z,25.67
2022-08-17T21:12:03.262Z,25.43
2022-08-17T21:14:34.176Z,25.37
2022-08-17T21:17:26.400Z,25.29
2022-08-17T21:20:32.270Z,25.26
2022-08-17T21:23:13.759Z,25.38
2022-08-17T21:26:14.446Z,25.50
2022-08-17T21:29:31.020Z,25.53
2022-08-17T21:31:59.536Z,25.63
2022-08-17T21:34:35.613Z,25.73
2022-08-17T21:37:22.291Z,25.84
2022-08-17T21:40:01.764Z,25.77
2022-08-17T21:42:36.069Z,25.84
2022-08-17T21:45:32.191Z,25.51
2022-08-17T21:48:27.430Z,25.56
2022-08-17T21:51:10.573Z,25.45
2022-08-17T21:53:51.461Z,25.47
2022-08-17T21:56:35.098Z,25.34
2022-08-17T21:59:34.721Z,25.29
2022-08-17T22:02:28.433Z,25.22
2022-08-17T22:05:02.906Z,25.24
2022-08-17T22:07:46.389Z,25.20
2022-08-17T22:10:42.344Z,24.88
2022-08-17T22:13:22.216Z,24.67
2022-08-17T22:16:28.164Z,24.79
2022-08-17T22:18:59.013Z,24.58
2022-08-17T22:21:26.365Z,24.41
2022-08-17T22:24:07.352Z,24.48
2022-08-17T22:27:07.556Z,24.36
2022-08-17T22:29:58.402Z,24.05
2022-08-17T22:32:41.529Z,24.07
2022-08-17T22:35:34.995Z,24.12
2022-08-17T22:38:20.246Z,24.06
2022-08-17T22:40:53.973Z,24.02
2022-08-17T22:43:26.423Z,24.09
2022-08-17T22:45:58.672Z,24.17
2022-08-17T22:48:29.655Z,24.07
2022-08-17T22:51:12.612Z,24.07
2022-08-17T22:54:13.147Z,23.91
2022-08-17T22:57:31.603Z,24.03
2022-08-17T23:00:00.254Z,23.97
2022-08-17T23:02:34.152Z,23.95
2022-08-17T23:05:13.071Z,23.87
2022-08-17T23:07:42.503Z,23.94
2022-08-17T23:10:11.776Z,23.86
2022-08-17T23:12:39.980Z,23.58
2022-08-17T23:15:19.114Z,23.57
2022-08-17T23:17:46.460Z,23.54
2022-08-17T23:20:17.931Z,23.43
2022-08-17T23:22:51.308Z,23.47
2022-08-17T23:25:33.654Z,23.39
2022-08-17T23:28:03.546Z,23.14
2022-08-17T23:30:39.424Z,23.16
2022-08-17T23:33:19.889Z,23.07
2022-08-17T23:35:46.999Z,23.20
2022-08-17T23:38:14.329Z,23.16
2022-08-17T23:40:41.628Z,23.15
2022-08-17T23:43:23.416Z,23.08
2022-08-17T23:46:00.783Z,23.05
2022-08-17T23:48:35.043Z,23.11
2022-08-17T23:51:19.079Z,23.20
2022-08-17T23:53:58.229Z,23.29
2022-08-17T23:56:26.014Z,23.37
2022-08-17T23:58:55.404Z,23.38
